createdAt,value
2023-01-13T00:01:18.969Z,0.57
2023-01-13T00:03:46.061Z,0.40
2023-01-13T00:06:15.654Z,0.55
2023-01-13T00:08:42.573Z,0.73
2023-01-13T00:11:10.740Z,0.32
2023-01-13T00:13:38.721Z,0.60
2023-01-13T00:16:11.487Z,1.08
2023-01-13T00:18:38.652Z,0.85
2023-01-13T00:21:14.645Z,1.15
2023-01-13T00:23:42.392Z,0.65
2023-01-13T00:26:13.960Z,0.63
2023-01-13T00:28:41.003Z,0.60
2023-01-13T00:31:20.718Z,0.68
2023-01-13T00:33:51.514Z,0.28
2023-01-13T00:36:20.379Z,2.63
2023-01-13T00:38:48.156Z,0.55
2023-01-13T00:41:20.858Z,0.30
2023-01-13T00:43:48.580Z,1.50
2023-01-13T00:46:18.026Z,0.57
2023-01-13T00:48:45.290Z,0.40
2023-01-13T00:51:20.508Z,1.88
2023-01-13T00:53:49.950Z,0.38
2023-01-13T00:56:39.232Z,0.95
2023-01-13T00:59:08.195Z,0.95
2023-01-13T01:01:40.972Z,0.77
2023-01-13T01:04:08.276Z,1.35
2023-01-13T01:06:35.233Z,0.45
2023-01-13T01:09:02.564Z,0.47
2023-01-13T01:11:31.946Z,8.32
2023-01-13T01:14:01.881Z,0.55
2023-01-13T01:16:31.634Z,0.50
2023-01-13T01:18:59.619Z,1.13
2023-01-13T01:21:28.515Z,0.55
2023-01-13T01:23:55.895Z,1.35
2023-01-13T01:26:25.047Z,0.57
2023-01-13T01:28:52.751Z,1.90
2023-01-13T01:31:22.728Z,0.30
2023-01-13T01:33:50.620Z,0.55
2023-01-13T01:36:19.716Z,0.40
2023-01-13T01:38:47.716Z,1.27
2023-01-13T01:41:17.358Z,0.40
2023-01-13T01:44:02.598Z,0.63
2023-01-13T01:46:42.775Z,0.63
2023-01-13T01:49:18.180Z,0.30
2023-01-13T01:52:19.450Z,0.32
2023-01-13T01:55:02.276Z,1.13
2023-01-13T01:57:42.842Z,0.45
2023-01-13T02:00:11.487Z,0.47
2023-01-13T02:05:14.456Z,0.30
2023-01-13T02:07:43.381Z,0.40
2023-01-13T02:10:13.438Z,0.32
2023-01-13T02:12:43.378Z,0.57
2023-01-13T02:15:14.321Z,0.35
2023-01-13T02:18:11.825Z,0.60
2023-01-13T02:21:03.095Z,0.32
2023-01-13T02:24:19.764Z,1.02
2023-01-13T02:26:57.399Z,0.88
2023-01-13T02:30:20.287Z,0.50
2023-01-13T02:32:55.803Z,0.30
2023-01-13T02:35:29.873Z,0.47
2023-01-13T02:37:59.509Z,0.40
2023-01-13T02:40:34.706Z,0.20
2023-01-13T02:43:42.392Z,0.68
2023-01-13T02:46:20.247Z,0.32
2023-01-13T02:48:50.651Z,0.55
2023-01-13T02:51:21.644Z,0.47
2023-01-13T02:53:54.341Z,0.30
2023-01-13T02:56:24.352Z,0.30
2023-01-13T02:58:53.885Z,0.30
2023-01-13T03:01:20.944Z,0.80
2023-01-13T03:03:49.965Z,0.30
2023-01-13T03:06:16.677Z,0.30
2023-01-13T03:08:50.629Z,0.30
2023-01-13T03:11:19.870Z,0.20
2023-01-13T03:13:49.594Z,0.25
2023-01-13T03:16:23.983Z,0.30
2023-01-13T03:19:12.249Z,0.28
2023-01-13T03:21:54.804Z,0.30
2023-01-13T03:24:32.545Z,0.30
2023-01-13T03:27:07.217Z,0.22
2023-01-13T03:30:00.428Z,0.30
2023-01-13T03:32:37.188Z,1.17
2023-01-13T03:35:08.298Z,0.10
2023-01-13T03:37:41.180Z,0.70
2023-01-13T03:40:14.439Z,1.05
2023-01-13T03:43:07.490Z,0.28
2023-01-13T03:45:38.875Z,0.20
2023-01-13T03:48:14.269Z,0.93
2023-01-13T03:50:47.407Z,0.90
2023-01-13T03:53:29.719Z,0.20
2023-01-13T03:56:02.025Z,0.25
2023-01-13T03:58:37.615Z,1.02
2023-01-13T04:01:16.645Z,0.45
2023-01-13T04:03:59.383Z,0.70
2023-01-13T04:06:31.671Z,0.38
2023-01-13T04:09:06.582Z,0.25
2023-01-13T04:11:39.981Z,0.65
2023-01-13T04:14:10.667Z,0.50
2023-01-13T04:16:38.232Z,0.40
2023-01-13T04:19:06.498Z,0.65
2023-01-13T04:21:34.815Z,0.30
2023-01-13T04:24:01.543Z,1.25
2023-01-13T04:26:30.411Z,0.68
2023-01-13T04:28:57.190Z,0.35
2023-01-13T04:31:24.380Z,0.38
2023-01-13T04:33:51.208Z,0.30
2023-01-13T04:36:19.641Z,0.95
2023-01-13T04:38:46.480Z,0.80
2023-01-13T04:41:13.308Z,0.22
2023-01-13T04:43:40.124Z,2.03
2023-01-13T04:46:06.921Z,0.45
2023-01-13T04:48:33.790Z,0.47
2023-01-13T04:51:00.539Z,0.43
2023-01-13T04:53:27.296Z,0.30
2023-01-13T04:55:54.164Z,0.40
2023-01-13T04:58:21.521Z,0.35
2023-01-13T05:00:50.001Z,0.20
2023-01-13T05:03:17.160Z,0.28
2023-01-13T05:05:44.281Z,0.32
2023-01-13T05:08:11.052Z,0.20
2023-01-13T05:10:37.881Z,0.55
2023-01-13T05:13:23.127Z,0.57
2023-01-13T05:16:11.171Z,0.20
2023-01-13T05:18:38.236Z,0.50
2023-01-13T05:21:25.085Z,1.88
2023-01-13T05:24:10.547Z,0.20
2023-01-13T05:26:37.318Z,0.20
2023-01-13T05:29:04.082Z,0.80
2023-01-13T05:31:30.838Z,0.45
2023-01-13T05:33:57.661Z,1.25
2023-01-13T05:36:24.446Z,0.20
2023-01-13T05:38:51.859Z,0.32
2023-01-13T05:41:37.421Z,0.10
2023-01-13T05:44:04.395Z,0.32
2023-01-13T05:46:31.181Z,0.20
2023-01-13T05:48:59.856Z,0.20
2023-01-13T05:51:26.689Z,0.75
2023-01-13T05:53:53.396Z,0.28
2023-01-13T05:56:20.165Z,0.65
2023-01-13T05:58:46.912Z,0.20
2023-01-13T06:01:13.795Z,0.45
2023-01-13T06:03:40.639Z,0.73
2023-01-13T06:06:09.042Z,0.38
2023-01-13T06:08:38.046Z,0.52
2023-01-13T06:11:06.234Z,0.13
2023-01-13T06:13:32.963Z,3.03
2023-01-13T06:16:00.520Z,2.17
2023-01-13T06:18:28.454Z,0.25
2023-01-13T06:20:55.689Z,0.20
2023-01-13T06:23:22.754Z,0.30
2023-01-13T06:26:02.096Z,0.30
2023-01-13T06:28:28.824Z,0.95
2023-01-13T06:30:58.932Z,0.10
2023-01-13T06:33:33.146Z,0.25
2023-01-13T06:36:05.046Z,0.45
2023-01-13T06:38:35.993Z,0.17
2023-01-13T06:41:03.760Z,0.35
2023-01-13T06:43:30.553Z,0.30
2023-01-13T06:45:57.362Z,0.20
2023-01-13T06:48:29.011Z,0.28
2023-01-13T06:50:55.855Z,0.32
2023-01-13T06:53:22.627Z,0.10
2023-01-13T06:55:49.362Z,0.47
2023-01-13T06:58:16.327Z,0.15
2023-01-13T07:00:43.199Z,0.10
2023-01-13T07:03:15.031Z,0.28
2023-01-13T07:05:43.817Z,0.30
2023-01-13T07:08:10.946Z,0.57
2023-01-13T07:10:37.942Z,0.28
2023-01-13T07:13:25.263Z,0.25
2023-01-13T07:15:56.743Z,0.32
2023-01-13T07:18:24.536Z,0.20
2023-01-13T07:20:56.459Z,1.00
2023-01-13T07:23:23.357Z,2.28
2023-01-13T07:25:50.548Z,0.47
2023-01-13T07:28:17.605Z,2.33
2023-01-13T07:30:44.702Z,0.73
2023-01-13T07:33:11.505Z,1.08
2023-01-13T07:35:38.393Z,0.38
2023-01-13T07:38:05.415Z,2.05
2023-01-13T07:40:32.147Z,3.25
2023-01-13T07:43:17.726Z,0.47
2023-01-13T07:45:44.614Z,0.80
2023-01-13T07:48:11.402Z,1.75
2023-01-13T07:50:38.243Z,1.55
2023-01-13T07:53:05.211Z,0.77
2023-01-13T07:55:31.988Z,0.60
2023-01-13T07:57:58.737Z,1.10
2023-01-13T08:00:25.640Z,1.52
2023-01-13T08:02:52.448Z,1.92
2023-01-13T08:05:19.331Z,0.95
2023-01-13T08:07:46.174Z,1.40
2023-01-13T08:10:13.057Z,0.85
2023-01-13T08:12:58.332Z,0.73
2023-01-13T08:15:25.110Z,1.20
2023-01-13T08:17:51.868Z,4.60
2023-01-13T08:20:19.196Z,0.82
2023-01-13T08:22:46.035Z,1.33
2023-01-13T08:25:13.045Z,1.58
2023-01-13T08:27:40.096Z,1.08
2023-01-13T08:30:07.625Z,2.42
2023-01-13T08:32:34.416Z,1.20
2023-01-13T08:35:01.258Z,1.67
2023-01-13T08:37:28.052Z,1.15
2023-01-13T08:39:54.764Z,1.48
2023-01-13T08:42:21.515Z,0.70
2023-01-13T08:44:48.295Z,2.47
2023-01-13T08:47:15.101Z,0.98
2023-01-13T08:49:41.943Z,0.75
2023-01-13T08:52:08.893Z,2.67
2023-01-13T08:54:37.466Z,1.27
2023-01-13T08:57:04.370Z,1.77
2023-01-13T08:59:31.508Z,1.23
2023-01-13T09:01:58.429Z,0.82
2023-01-13T09:04:27.987Z,2.47
2023-01-13T09:06:55.722Z,1.85
2023-01-13T09:09:23.873Z,0.70
2023-01-13T09:12:10.564Z,1.40
2023-01-13T09:14:38.590Z,3.20
2023-01-13T09:17:05.419Z,2.60
2023-01-13T09:19:32.231Z,2.05
2023-01-13T09:21:59.288Z,1.35
2023-01-13T09:24:26.542Z,2.20
2023-01-13T09:26:53.711Z,1.02
2023-01-13T09:29:21.044Z,2.65
2023-01-13T09:31:48.036Z,3.67
2023-01-13T09:34:36.701Z,3.60
2023-01-13T09:37:05.440Z,1.95
2023-01-13T09:39:36.540Z,3.80
2023-01-13T09:42:52.627Z,1.48
2023-01-13T09:45:24.894Z,3.28
2023-01-13T09:48:10.265Z,1.77
2023-01-13T09:51:09.723Z,3.05
2023-01-13T09:53:47.775Z,2.90
2023-01-13T09:56:14.660Z,3.35
2023-01-13T09:58:48.938Z,4.95
2023-01-13T10:01:45.666Z,1.65
2023-01-13T10:04:14.895Z,0.88
2023-01-13T10:06:46.331Z,3.30
2023-01-13T10:09:18.808Z,1.88
2023-01-13T10:12:05.822Z,2.22
2023-01-13T10:14:41.919Z,2.10
2023-01-13T10:17:33.700Z,3.25
2023-01-13T10:20:12.039Z,3.20
2023-01-13T10:23:04.230Z,1.90
2023-01-13T10:26:04.571Z,4.32
2023-01-13T10:28:31.432Z,1.45
2023-01-13T10:30:59.649Z,4.47
2023-01-13T10:33:31.043Z,4.05
2023-01-13T10:35:59.718Z,4.10
2023-01-13T10:38:37.533Z,5.80
2023-01-13T10:41:06.030Z,6.90
2023-01-13T10:43:32.909Z,2.30
2023-01-13T10:46:07.128Z,4.47
2023-01-13T10:48:36.794Z,2.67
2023-01-13T10:51:22.202Z,2.05
2023-01-13T10:53:53.479Z,2.58
2023-01-13T10:56:21.921Z,4.82
2023-01-13T10:58:48.786Z,3.08
2023-01-13T11:01:27.107Z,4.43
2023-01-13T11:03:55.335Z,4.53
2023-01-13T11:06:28.459Z,1.25
2023-01-13T11:08:58.344Z,2.72
2023-01-13T11:11:47.482Z,3.67
2023-01-13T11:14:41.720Z,3.08
2023-01-13T11:18:00.474Z,3.03
2023-01-13T11:20:41.400Z,3.25
2023-01-13T11:23:38.367Z,4.82
2023-01-13T11:26:16.189Z,4.53
2023-01-13T11:29:11.058Z,4.32
2023-01-13T11:31:48.311Z,4.18
2023-01-13T11:34:30.088Z,4.90
2023-01-13T11:37:00.498Z,2.42
2023-01-13T11:40:05.498Z,3.22
2023-01-13T11:42:55.622Z,5.03
2023-01-13T11:45:37.250Z,5.63
2023-01-13T11:48:04.730Z,2.55
2023-01-13T11:50:31.553Z,5.53
2023-01-13T11:53:23.487Z,1.75
2023-01-13T11:56:17.851Z,7.25
2023-01-13T11:59:08.116Z,3.83
2023-01-13T12:01:56.404Z,3.45
2023-01-13T12:04:23.153Z,2.72
2023-01-13T12:07:17.173Z,2.50
2023-01-13T12:09:57.772Z,2.38
2023-01-13T12:12:53.873Z,4.40
2023-01-13T12:15:51.249Z,2.17
2023-01-13T12:18:30.378Z,4.35
2023-01-13T12:21:17.727Z,2.75
2023-01-13T12:23:47.502Z,4.38
2023-01-13T12:26:16.678Z,4.97
2023-01-13T12:29:09.631Z,4.25
2023-01-13T12:31:39.736Z,6.13
2023-01-13T12:34:26.248Z,4.45
2023-01-13T12:37:05.408Z,4.53
2023-01-13T12:39:41.177Z,4.63
2023-01-13T12:42:32.644Z,3.60
2023-01-13T12:45:11.507Z,2.63
2023-01-13T12:47:47.512Z,2.80
2023-01-13T12:50:23.891Z,5.25
2023-01-13T12:52:58.813Z,4.50
2023-01-13T12:55:34.565Z,5.15
2023-01-13T12:58:10.332Z,3.63
2023-01-13T13:00:40.206Z,3.10
2023-01-13T13:03:13.662Z,3.90
2023-01-13T13:05:56.831Z,4.00
2023-01-13T13:08:35.903Z,1.48
2023-01-13T13:11:52.595Z,5.03
2023-01-13T13:14:39.335Z,4.63
2023-01-13T13:17:29.393Z,2.22
2023-01-13T13:19:58.002Z,3.28
2023-01-13T13:22:27.477Z,2.35
2023-01-13T13:24:59.750Z,5.15
2023-01-13T13:27:40.926Z,1.42
2023-01-13T13:30:18.882Z,1.92
2023-01-13T13:32:51.637Z,3.08
2023-01-13T13:35:40.417Z,1.65
2023-01-13T13:38:59.950Z,2.38
2023-01-13T13:41:46.021Z,4.45
2023-01-13T13:44:38.112Z,4.22
2023-01-13T13:47:07.084Z,6.93
2023-01-13T13:49:46.773Z,3.53
2023-01-13T13:52:29.737Z,3.38
2023-01-13T13:55:02.726Z,5.60
2023-01-13T13:57:39.964Z,4.43
2023-01-13T14:00:38.020Z,2.75
2023-01-13T14:03:22.921Z,2.83
2023-01-13T14:05:58.184Z,3.33
2023-01-13T14:08:26.264Z,4.15
2023-01-13T14:10:53.502Z,3.38
2023-01-13T14:13:24.051Z,3.75
2023-01-13T14:15:58.116Z,3.95
2023-01-13T14:18:26.359Z,2.97
2023-01-13T14:21:03.445Z,3.65
2023-01-13T14:23:33.033Z,4.80
2023-01-13T14:26:08.708Z,2.83
2023-01-13T14:28:40.687Z,4.80
2023-01-13T14:31:09.393Z,4.28
2023-01-13T14:33:57.542Z,5.47
2023-01-13T14:36:25.385Z,1.98
2023-01-13T14:39:04.080Z,3.30
2023-01-13T14:41:38.079Z,3.33
2023-01-13T14:44:25.337Z,2.67
2023-01-13T14:46:55.250Z,2.70
2023-01-13T14:49:28.702Z,3.90
2023-01-13T14:52:09.930Z,2.33
2023-01-13T14:55:02.663Z,3.08
2023-01-13T14:57:32.134Z,2.47
2023-01-13T15:00:04.650Z,3.17
2023-01-13T15:02:38.413Z,2.50
2023-01-13T15:05:17.425Z,2.88
2023-01-13T15:07:53.100Z,2.08
2023-01-13T15:10:24.959Z,3.10
2023-01-13T15:12:54.075Z,3.05
2023-01-13T15:15:28.002Z,2.22
2023-01-13T15:17:54.776Z,1.90
2023-01-13T15:20:24.073Z,3.15
2023-01-13T15:22:52.129Z,1.77
2023-01-13T15:25:19.112Z,2.35
2023-01-13T15:27:50.182Z,4.55
2023-01-13T15:30:25.002Z,4.18
2023-01-13T15:32:53.157Z,5.18
2023-01-13T15:35:21.216Z,4.22
2023-01-13T15:37:48.715Z,3.70
2023-01-13T15:40:19.391Z,4.47
2023-01-13T15:43:04.936Z,5.55
2023-01-13T15:45:52.449Z,5.82
2023-01-13T15:48:22.564Z,4.82
2023-01-13T15:50:49.602Z,4.63
2023-01-13T15:53:17.092Z,6.35
2023-01-13T15:55:46.868Z,6.28
2023-01-13T15:58:14.872Z,4.57
2023-01-13T16:00:42.482Z,4.97
2023-01-13T16:03:14.370Z,4.57
2023-01-13T16:05:42.673Z,3.72
2023-01-13T16:08:21.286Z,2.90
2023-01-13T16:10:49.770Z,3.53
2023-01-13T16:13:17.152Z,6.97
2023-01-13T16:15:48.211Z,4.45
2023-01-13T16:18:23.973Z,5.90
2023-01-13T16:20:55.220Z,3.05
2023-01-13T16:23:22.795Z,5.18
2023-01-13T16:25:55.001Z,3.08
2023-01-13T16:28:24.630Z,2.88
2023-01-13T16:30:51.493Z,4.88
2023-01-13T16:33:18.798Z,2.22
2023-01-13T16:36:10.279Z,3.97
2023-01-13T16:38:32.360Z,1.73
2023-01-13T16:40:59.167Z,3.10
2023-01-13T16:43:25.996Z,2.67
2023-01-13T16:45:52.747Z,2.10
2023-01-13T16:48:20.444Z,4.70
2023-01-13T16:50:47.487Z,7.50
2023-01-13T16:53:14.424Z,4.07
2023-01-13T16:55:42.116Z,4.38
2023-01-13T16:58:18.932Z,7.78
2023-01-13T17:00:47.003Z,4.03
2023-01-13T17:03:14.804Z,3.95
2023-01-13T17:05:43.390Z,3.83
2023-01-13T17:08:17.843Z,4.35
2023-01-13T17:10:45.533Z,3.50
2023-01-13T17:13:16.261Z,2.85
2023-01-13T17:15:44.614Z,3.38
2023-01-13T17:18:13.376Z,6.05
2023-01-13T17:20:40.747Z,2.15
2023-01-13T17:23:07.603Z,3.28
2023-01-13T17:25:34.400Z,4.07
2023-01-13T17:28:01.719Z,4.10
2023-01-13T17:30:28.501Z,6.78
2023-01-13T17:32:55.324Z,4.60
2023-01-13T17:35:24.832Z,5.28
2023-01-13T17:37:53.123Z,5.03
2023-01-13T17:40:20.455Z,6.15
2023-01-13T17:42:47.288Z,5.75
2023-01-13T17:45:14.101Z,2.90
2023-01-13T17:47:40.823Z,4.18
2023-01-13T17:50:08.093Z,5.43
2023-01-13T17:52:35.164Z,3.97
2023-01-13T17:55:01.907Z,4.70
2023-01-13T17:57:28.646Z,4.47
2023-01-13T17:59:55.468Z,3.53
2023-01-13T18:02:22.369Z,4.03
2023-01-13T18:04:49.271Z,6.20
2023-01-13T18:07:16.032Z,3.03
2023-01-13T18:09:43.109Z,2.88
2023-01-13T18:12:10.851Z,5.10
2023-01-13T18:14:39.173Z,3.40
2023-01-13T18:17:06.001Z,2.55
2023-01-13T18:19:51.669Z,4.20
2023-01-13T18:22:37.152Z,5.90
2023-01-13T18:25:23.152Z,5.32
2023-01-13T18:27:50.147Z,3.83
2023-01-13T18:30:17.101Z,5.43
2023-01-13T18:32:44.742Z,3.97
2023-01-13T18:35:11.600Z,3.85
2023-01-13T18:37:40.782Z,3.20
2023-01-13T18:40:10.059Z,3.05
2023-01-13T18:42:53.628Z,9.02
2023-01-13T18:45:24.309Z,4.57
2023-01-13T18:47:51.986Z,3.33
2023-01-13T18:50:19.251Z,5.82
2023-01-13T18:52:46.274Z,2.15
2023-01-13T18:55:13.177Z,2.83
2023-01-13T18:57:40.319Z,3.78
2023-01-13T19:00:10.223Z,5.22
2023-01-13T19:02:37.172Z,2.45
2023-01-13T19:05:05.387Z,2.65
2023-01-13T19:07:34.782Z,5.85
2023-01-13T19:10:04.154Z,3.15
2023-01-13T19:12:31.312Z,5.30
2023-01-13T19:14:59.327Z,4.90
2023-01-13T19:17:30.025Z,6.03
2023-01-13T19:19:58.604Z,4.03
2023-01-13T19:22:34.492Z,1.50
2023-01-13T19:25:03.181Z,2.75
2023-01-13T19:27:30.564Z,4.22
2023-01-13T19:30:03.959Z,4.00
2023-01-13T19:32:33.389Z,3.97
2023-01-13T19:35:00.982Z,5.70
2023-01-13T19:37:33.761Z,2.33
2023-01-13T19:40:02.009Z,6.53
2023-01-13T19:42:47.487Z,4.22
2023-01-13T19:45:27.899Z,7.43
2023-01-13T19:47:55.703Z,4.32
2023-01-13T19:50:22.722Z,6.85
2023-01-13T19:52:49.542Z,3.85
2023-01-13T19:55:16.356Z,2.83
2023-01-13T19:57:43.537Z,1.85
2023-01-13T20:00:11.728Z,3.22
2023-01-13T20:02:38.971Z,3.10
2023-01-13T20:05:08.088Z,4.07
2023-01-13T20:07:35.406Z,3.35
2023-01-13T20:10:02.695Z,4.82
2023-01-13T20:12:29.929Z,3.47
2023-01-13T20:14:57.202Z,3.85
2023-01-13T20:17:26.467Z,3.13
2023-01-13T20:19:53.546Z,5.13
2023-01-13T20:22:20.375Z,3.58
2023-01-13T20:24:48.549Z,5.15
2023-01-13T20:27:15.424Z,5.38
2023-01-13T20:29:42.280Z,5.50
2023-01-13T20:32:09.166Z,3.17
2023-01-13T20:34:36.026Z,6.15
2023-01-13T20:37:02.864Z,5.93
2023-01-13T20:39:29.718Z,4.68
2023-01-13T20:42:14.888Z,5.18
2023-01-13T20:44:44.089Z,5.13
2023-01-13T20:47:11.044Z,4.82
2023-01-13T20:49:41.309Z,5.90
2023-01-13T20:52:10.968Z,8.10
2023-01-13T20:54:39.352Z,7.45
2023-01-13T20:57:09.580Z,5.28
2023-01-13T20:59:37.603Z,9.77
2023-01-13T21:02:05.842Z,4.25
2023-01-13T21:04:33.220Z,7.57
2023-01-13T21:07:00.092Z,4.15
2023-01-13T21:09:27.358Z,5.78
2023-01-13T21:12:13.294Z,4.85
2023-01-13T21:14:58.964Z,4.32
2023-01-13T21:17:44.220Z,5.25
2023-01-13T21:20:13.494Z,7.75
2023-01-13T21:22:44.129Z,7.20
2023-01-13T21:25:12.445Z,5.43
2023-01-13T21:27:39.540Z,6.65
2023-01-13T21:30:07.139Z,5.15
2023-01-13T21:32:34.020Z,4.63
2023-01-13T21:35:02.388Z,8.73
2023-01-13T21:37:29.108Z,8.35
2023-01-13T21:39:55.921Z,6.45
2023-01-13T21:42:41.095Z,6.63
2023-01-13T21:45:28.958Z,6.55
2023-01-13T21:47:56.699Z,6.57
2023-01-13T21:50:25.960Z,5.45
2023-01-13T21:52:53.178Z,4.47
2023-01-13T21:55:25.508Z,9.48
2023-01-13T21:58:16.756Z,7.20
2023-01-13T22:00:44.801Z,7.07
2023-01-13T22:03:13.951Z,7.85
2023-01-13T22:05:41.070Z,9.77
2023-01-13T22:08:07.982Z,3.97
2023-01-13T22:10:35.059Z,5.82
2023-01-13T22:13:23.489Z,5.28
2023-01-13T22:15:50.351Z,7.88
2023-01-13T22:18:18.284Z,3.45
2023-01-13T22:20:45.617Z,5.47
2023-01-13T22:23:12.572Z,5.28
2023-01-13T22:25:39.402Z,6.40
2023-01-13T22:28:08.656Z,7.35
2023-01-13T22:30:35.530Z,6.38
2023-01-13T22:33:02.363Z,6.85
2023-01-13T22:35:29.136Z,6.38
2023-01-13T22:37:55.987Z,7.22
2023-01-13T22:40:22.712Z,3.22
2023-01-13T22:42:49.501Z,8.32
2023-01-13T22:45:16.359Z,3.67
2023-01-13T22:47:43.351Z,2.80
2023-01-13T22:50:12.556Z,5.68
2023-01-13T22:52:39.855Z,6.38
2023-01-13T22:55:07.516Z,5.40
2023-01-13T22:57:36.394Z,8.35
2023-01-13T23:00:10.212Z,9.40
2023-01-13T23:02:38.374Z,8.68
2023-01-13T23:05:05.553Z,8.48
2023-01-13T23:07:32.381Z,6.22
2023-01-13T23:09:59.159Z,9.32
2023-01-13T23:12:26.033Z,2.70
2023-01-13T23:14:52.834Z,5.22
2023-01-13T23:17:19.599Z,3.88
2023-01-13T23:19:46.375Z,5.28
2023-01-13T23:22:13.599Z,4.63
2023-01-13T23:24:40.368Z,7.93
2023-01-13T23:27:07.387Z,2.90
2023-01-13T23:29:34.196Z,6.03
2023-01-13T23:32:01.012Z,5.20
2023-01-13T23:34:27.879Z,6.15
2023-01-13T23:36:54.705Z,5.38
2023-01-13T23:39:21.478Z,4.63
2023-01-13T23:41:48.247Z,8.93
2023-01-13T23:44:14.990Z,3.45
2023-01-13T23:46:41.963Z,7.60
2023-01-13T23:49:08.722Z,6.28
2023-01-13T23:51:35.547Z,5.47
2023-01-13T23:54:02.421Z,6.88
2023-01-13T23:56:31.557Z,7.05
2023-01-13T23:58:59.185Z,6.35
